Algosteel — VDJB — position and weather

sailwx.info

Track history (hours):
 
Tides and Currents Weather Stations Pressure Air Temp Water Temp Dewpoint Dewpoint Depression Visibility Wind Speed Wind Dir Waves Ship Positions

Algosteel

Last reported at 2017-Dec-08 12:46 UTC. Time now 2017-Dec-15 04:30 UTC.
Position N 45°14' W 074°09'.

Length 223 m; draft 7.1 m.

Type: Cargo ship. MMSI: 316001796.

Date/timePositionNaut miles runAvg speedWind from/ knotsBaromVisibWave heightAir tempDewpointWater temp
2017-Dec-08 12:46N 45°14' W 074°09'4 8.2
2017-Dec-08 12:20N 45°13' W 074°04'2 7.1
2017-Dec-08 11:59N 45°14' W 074°00'4 7.7
2017-Dec-08 11:30N 45°17' W 073°57'2 3.3
2017-Dec-08 11:00N 45°18' W 073°56'1 1.2
2017-Dec-08 10:30N 45°19' W 073°55'0 0.7
2017-Dec-08 10:00N 45°19' W 073°55'1 2.0
2017-Dec-08 09:30N 45°20' W 073°54'3 6.6
2017-Dec-08 09:00N 45°22' W 073°50'5 9.8
2017-Dec-08 08:30N 45°24' W 073°45'3 6.9
2017-Dec-08 08:00N 45°25' W 073°40'3 5.7
2017-Dec-08 07:30N 45°24' W 073°36'1 2.4
2017-Dec-08 07:00N 45°24' W 073°34'1 1.7
2017-Dec-08 06:30N 45°24' W 073°33'2 4.5
2017-Dec-08 06:00N 45°26' W 073°30'3 6.1
2017-Dec-08 05:30N 45°29' W 073°31'1 1.5
2017-Dec-08 04:45N 45°30' W 073°31'  
2017-Dec-02 15:27N 45°32' W 083°21'512.1
2017-Dec-02 15:01N 45°36' W 083°26'612.0
2017-Dec-02 14:30N 45°40' W 083°32'612.0
2017-Dec-02 14:00N 45°45' W 083°38'34110.0
2017-Dec-01 03:48N 47°00' W 091°40'1 0.1
2017-Nov-30 17:47N 47°01' W 091°40'0 1.5
2017-Nov-30 17:30N 47°00' W 091°41'2 3.4
2017-Nov-30 17:01N 46°59' W 091°42'4 7.0
2017-Nov-30 16:30N 46°56' W 091°45'510.7
2017-Nov-30 16:01N 46°52' W 091°50'2 4.6
2017-Nov-30 15:30N 46°51' W 091°53'2 4.3
2017-Nov-30 15:01N 46°49' W 091°55'3 5.3
2017-Nov-30 14:30N 46°48' W 091°58'2 3.4
2017-Nov-30 13:55N 46°46' W 092°00'1 1.4
2017-Nov-30 13:29N 46°46' W 092°00'0 0.1
2017-Nov-30 12:59N 46°46' W 092°00'0 0.0
2017-Nov-30 12:29N 46°46' W 092°00'0 0.0
2017-Nov-30 11:59N 46°46' W 092°00'0 0.0
2017-Nov-30 11:29N 46°46' W 092°00'0 0.0
2017-Nov-30 10:59N 46°46' W 092°00'0 0.0
2017-Nov-30 10:29N 46°46' W 092°00'0 0.0
2017-Nov-30 09:59N 46°46' W 092°00'0 0.1
2017-Nov-30 09:29N 46°46' W 092°00'0 0.2
2017-Nov-30 08:59N 46°46' W 092°00'0 0.0
2017-Nov-30 08:29N 46°46' W 092°00'0 0.0
2017-Nov-30 07:59N 46°46' W 092°00'0 0.0
2017-Nov-30 07:29N 46°46' W 092°00'0 0.0
2017-Nov-30 06:56N 46°46' W 092°00'0 0.0
2017-Nov-30 06:29N 46°46' W 092°00'0 0.0
2017-Nov-30 05:59N 46°46' W 092°00'0 0.0
2017-Nov-30 05:26N 46°46' W 092°00'0 0.0
2017-Nov-30 04:59N 46°46' W 092°00'0 0.1
2017-Nov-30 04:26N 46°46' W 092°00'0 0.0
2017-Nov-30 03:56N 46°46' W 092°00'1 2.2
2017-Nov-30 03:30N 46°46' W 091°59'611.3
2017-Nov-30 03:00N 46°47' W 091°51'611.7
2017-Nov-30 02:30N 46°49' W 091°43'  
Track history (hours):
 
Tides and Currents Weather Stations Pressure Air Temp Water Temp Dewpoint Dewpoint Depression Visibility Wind Speed Wind Dir Waves Ship Positions

Algosteel

Last reported at 2017-Dec-08 12:46 UTC. Time now 2017-Dec-15 04:30 UTC.
Position N 45°14' W 074°09'.

Length 223 m; draft 7.1 m.

Type: Cargo ship. MMSI: 316001796.

Date/timePositionNaut miles runAvg speedWind from/ knotsBaromVisibWave heightAir tempDewpointWater temp
2017-Dec-08 12:46N 45°14' W 074°09'4 8.2
2017-Dec-08 12:20N 45°13' W 074°04'2 7.1
2017-Dec-08 11:59N 45°14' W 074°00'4 7.7
2017-Dec-08 11:30N 45°17' W 073°57'2 3.3
2017-Dec-08 11:00N 45°18' W 073°56'1 1.2
2017-Dec-08 10:30N 45°19' W 073°55'0 0.7
2017-Dec-08 10:00N 45°19' W 073°55'1 2.0
2017-Dec-08 09:30N 45°20' W 073°54'3 6.6
2017-Dec-08 09:00N 45°22' W 073°50'5 9.8
2017-Dec-08 08:30N 45°24' W 073°45'3 6.9
2017-Dec-08 08:00N 45°25' W 073°40'3 5.7
2017-Dec-08 07:30N 45°24' W 073°36'1 2.4
2017-Dec-08 07:00N 45°24' W 073°34'1 1.7
2017-Dec-08 06:30N 45°24' W 073°33'2 4.5
2017-Dec-08 06:00N 45°26' W 073°30'3 6.1
2017-Dec-08 05:30N 45°29' W 073°31'1 1.5
2017-Dec-08 04:45N 45°30' W 073°31'  
2017-Dec-02 15:27N 45°32' W 083°21'512.1
2017-Dec-02 15:01N 45°36' W 083°26'612.0
2017-Dec-02 14:30N 45°40' W 083°32'612.0
2017-Dec-02 14:00N 45°45' W 083°38'34110.0
2017-Dec-01 03:48N 47°00' W 091°40'1 0.1
2017-Nov-30 17:47N 47°01' W 091°40'0 1.5
2017-Nov-30 17:30N 47°00' W 091°41'2 3.4
2017-Nov-30 17:01N 46°59' W 091°42'4 7.0
2017-Nov-30 16:30N 46°56' W 091°45'510.7
2017-Nov-30 16:01N 46°52' W 091°50'2 4.6
2017-Nov-30 15:30N 46°51' W 091°53'2 4.3
2017-Nov-30 15:01N 46°49' W 091°55'3 5.3
2017-Nov-30 14:30N 46°48' W 091°58'2 3.4
2017-Nov-30 13:55N 46°46' W 092°00'1 1.4
2017-Nov-30 13:29N 46°46' W 092°00'0 0.1
2017-Nov-30 12:59N 46°46' W 092°00'0 0.0
2017-Nov-30 12:29N 46°46' W 092°00'0 0.0
2017-Nov-30 11:59N 46°46' W 092°00'0 0.0
2017-Nov-30 11:29N 46°46' W 092°00'0 0.0
2017-Nov-30 10:59N 46°46' W 092°00'0 0.0
2017-Nov-30 10:29N 46°46' W 092°00'0 0.0
2017-Nov-30 09:59N 46°46' W 092°00'0 0.1
2017-Nov-30 09:29N 46°46' W 092°00'0 0.2
2017-Nov-30 08:59N 46°46' W 092°00'0 0.0
2017-Nov-30 08:29N 46°46' W 092°00'0 0.0
2017-Nov-30 07:59N 46°46' W 092°00'0 0.0
2017-Nov-30 07:29N 46°46' W 092°00'0 0.0
2017-Nov-30 06:56N 46°46' W 092°00'0 0.0
2017-Nov-30 06:29N 46°46' W 092°00'0 0.0
2017-Nov-30 05:59N 46°46' W 092°00'0 0.0
2017-Nov-30 05:26N 46°46' W 092°00'0 0.0
2017-Nov-30 04:59N 46°46' W 092°00'0 0.1
2017-Nov-30 04:26N 46°46' W 092°00'0 0.0
2017-Nov-30 03:56N 46°46' W 092°00'1 2.2
2017-Nov-30 03:30N 46°46' W 091°59'611.3
2017-Nov-30 03:00N 46°47' W 091°51'611.7
2017-Nov-30 02:30N 46°49' W 091°43'  

Dump ship's entire track history